sensor_id;sensor_type;location;lat;lon;timestamp;temperature;humidity
29501;DHT22;16450;50.288;10.966;2022-11-20T00:00:34;-5.30;93.90
29501;DHT22;16450;50.288;10.966;2022-11-20T00:03:34;-5.30;93.90
29501;DHT22;16450;50.288;10.966;2022-11-20T00:06:35;-5.30;93.90
29501;DHT22;16450;50.288;10.966;2022-11-20T00:09:35;-5.30;93.80
29501;DHT22;16450;50.288;10.966;2022-11-20T00:12:36;-5.30;93.80
29501;DHT22;16450;50.288;10.966;2022-11-20T00:15:36;-5.30;93.80
29501;DHT22;16450;50.288;10.966;2022-11-20T00:18:37;-5.40;93.80
29501;DHT22;16450;50.288;10.966;2022-11-20T00:21:38;-5.40;93.80
29501;DHT22;16450;50.288;10.966;2022-11-20T00:24:38;-5.30;93.90
29501;DHT22;16450;50.288;10.966;2022-11-20T00:27:39;-5.40;93.90
29501;DHT22;16450;50.288;10.966;2022-11-20T00:30:40;-5.40;94.00
29501;DHT22;16450;50.288;10.966;2022-11-20T00:33:42;-5.40;94.10
29501;DHT22;16450;50.288;10.966;2022-11-20T00:36:43;-5.40;94.10
29501;DHT22;16450;50.288;10.966;2022-11-20T00:39:43;-5.40;94.20
29501;DHT22;16450;50.288;10.966;2022-11-20T00:42:44;-5.40;94.30
29501;DHT22;16450;50.288;10.966;2022-11-20T00:45:45;-5.30;94.50
29501;DHT22;16450;50.288;10.966;2022-11-20T00:48:46;-5.30;94.70
29501;DHT22;16450;50.288;10.966;2022-11-20T00:51:49;-5.30;94.80
29501;DHT22;16450;50.288;10.966;2022-11-20T00:54:50;-5.30;94.80
29501;DHT22;16450;50.288;10.966;2022-11-20T00:57:50;-5.20;94.90
29501;DHT22;16450;50.288;10.966;2022-11-20T01:00:51;-5.20;95.30
29501;DHT22;16450;50.288;10.966;2022-11-20T01:03:54;-5.20;94.80
29501;DHT22;16450;50.288;10.966;2022-11-20T01:06:55;-5.20;94.70
29501;DHT22;16450;50.288;10.966;2022-11-20T01:09:56;-5.20;94.70
29501;DHT22;16450;50.288;10.966;2022-11-20T01:12:56;-5.20;94.60
29501;DHT22;16450;50.288;10.966;2022-11-20T01:16:25;-5.20;94.60
29501;DHT22;16450;50.288;10.966;2022-11-20T01:19:26;-5.20;94.60
29501;DHT22;16450;50.288;10.966;2022-11-20T01:22:26;-5.20;94.60
29501;DHT22;16450;50.288;10.966;2022-11-20T01:25:27;-5.20;94.80
29501;DHT22;16450;50.288;10.966;2022-11-20T01:28:28;-5.20;95.10
29501;DHT22;16450;50.288;10.966;2022-11-20T01:31:34;-5.20;95.40
29501;DHT22;16450;50.288;10.966;2022-11-20T01:34:35;-5.10;95.60
29501;DHT22;16450;50.288;10.966;2022-11-20T01:37:36;-5.10;95.90
29501;DHT22;16450;50.288;10.966;2022-11-20T01:40:36;-5.00;96.10
29501;DHT22;16450;50.288;10.966;2022-11-20T01:43:37;-4.90;96.20
29501;DHT22;16450;50.288;10.966;2022-11-20T01:46:39;-4.80;96.40
29501;DHT22;16450;50.288;10.966;2022-11-20T01:49:45;-4.80;96.40
29501;DHT22;16450;50.288;10.966;2022-11-20T01:52:54;-4.70;96.50
29501;DHT22;16450;50.288;10.966;2022-11-20T01:55:57;-4.60;96.60
29501;DHT22;16450;50.288;10.966;2022-11-20T01:59:02;-4.60;96.60
29501;DHT22;16450;50.288;10.966;2022-11-20T02:02:04;-4.50;96.60
29501;DHT22;16450;50.288;10.966;2022-11-20T02:05:27;-4.50;96.70
29501;DHT22;16450;50.288;10.966;2022-11-20T02:08:29;-4.40;96.60
29501;DHT22;16450;50.288;10.966;2022-11-20T02:11:31;-4.40;96.80
29501;DHT22;16450;50.288;10.966;2022-11-20T02:14:32;-4.30;96.90
29501;DHT22;16450;50.288;10.966;2022-11-20T02:17:32;-4.30;97.00
29501;DHT22;16450;50.288;10.966;2022-11-20T02:20:33;-4.20;97.10
29501;DHT22;16450;50.288;10.966;2022-11-20T02:23:39;-4.20;97.10
29501;DHT22;16450;50.288;10.966;2022-11-20T02:26:52;-4.10;97.10
29501;DHT22;16450;50.288;10.966;2022-11-20T02:29:57;-4.10;97.40
29501;DHT22;16450;50.288;10.966;2022-11-20T02:32:58;-4.10;97.10
29501;DHT22;16450;50.288;10.966;2022-11-20T02:35:59;-4.00;97.10
29501;DHT22;16450;50.288;10.966;2022-11-20T02:39:00;-4.00;97.10
29501;DHT22;16450;50.288;10.966;2022-11-20T02:42:01;-4.00;97.20
29501;DHT22;16450;50.288;10.966;2022-11-20T02:45:02;-3.90;97.20
29501;DHT22;16450;50.288;10.966;2022-11-20T02:48:02;-3.90;97.40
29501;DHT22;16450;50.288;10.966;2022-11-20T02:51:03;-3.90;97.40
29501;DHT22;16450;50.288;10.966;2022-11-20T02:54:04;-3.80;97.50
29501;DHT22;16450;50.288;10.966;2022-11-20T02:57:04;-3.80;97.60
29501;DHT22;16450;50.288;10.966;2022-11-20T03:00:06;-3.80;97.70
29501;DHT22;16450;50.288;10.966;2022-11-20T03:03:07;-3.70;97.80
29501;DHT22;16450;50.288;10.966;2022-11-20T03:06:08;-3.70;97.80
29501;DHT22;16450;50.288;10.966;2022-11-20T03:09:09;-3.60;97.80
29501;DHT22;16450;50.288;10.966;2022-11-20T03:12:09;-3.60;97.90
29501;DHT22;16450;50.288;10.966;2022-11-20T03:15:10;-3.60;97.90
29501;DHT22;16450;50.288;10.966;2022-11-20T03:18:10;-3.60;98.00
29501;DHT22;16450;50.288;10.966;2022-11-20T03:21:12;-3.50;98.00
29501;DHT22;16450;50.288;10.966;2022-11-20T03:24:14;-3.50;98.10
29501;DHT22;16450;50.288;10.966;2022-11-20T03:27:14;-3.50;98.10
29501;DHT22;16450;50.288;10.966;2022-11-20T03:30:15;-3.50;98.10
29501;DHT22;16450;50.288;10.966;2022-11-20T03:33:16;-3.40;98.20
29501;DHT22;16450;50.288;10.966;2022-11-20T03:36:18;-3.40;98.20
29501;DHT22;16450;50.288;10.966;2022-11-20T03:39:19;-3.40;98.20
29501;DHT22;16450;50.288;10.966;2022-11-20T03:42:20;-3.40;98.20
29501;DHT22;16450;50.288;10.966;2022-11-20T03:45:39;-3.40;98.20
29501;DHT22;16450;50.288;10.966;2022-11-20T03:48:39;-3.30;98.20
29501;DHT22;16450;50.288;10.966;2022-11-20T03:51:40;-3.30;98.20
29501;DHT22;16450;50.288;10.966;2022-11-20T03:54:40;-3.30;98.20
29501;DHT22;16450;50.288;10.966;2022-11-20T03:57:41;-3.30;98.30
29501;DHT22;16450;50.288;10.966;2022-11-20T04:00:41;-3.30;98.30
29501;DHT22;16450;50.288;10.966;2022-11-20T04:03:43;-3.30;98.30
29501;DHT22;16450;50.288;10.966;2022-11-20T04:06:44;-3.20;98.40
29501;DHT22;16450;50.288;10.966;2022-11-20T04:09:45;-3.20;98.40
29501;DHT22;16450;50.288;10.966;2022-11-20T04:12:46;-3.20;98.40
29501;DHT22;16450;50.288;10.966;2022-11-20T04:15:46;-3.20;98.40
29501;DHT22;16450;50.288;10.966;2022-11-20T04:18:52;-3.20;98.40
29501;DHT22;16450;50.288;10.966;2022-11-20T04:21:53;-3.10;98.40
29501;DHT22;16450;50.288;10.966;2022-11-20T04:24:54;-3.10;98.50
29501;DHT22;16450;50.288;10.966;2022-11-20T04:27:55;-3.10;98.50
29501;DHT22;16450;50.288;10.966;2022-11-20T04:31:02;-3.10;98.50
29501;DHT22;16450;50.288;10.966;2022-11-20T04:34:05;-3.10;98.40
29501;DHT22;16450;50.288;10.966;2022-11-20T04:37:05;-3.10;98.50
29501;DHT22;16450;50.288;10.966;2022-11-20T04:40:06;-3.00;98.60
29501;DHT22;16450;50.288;10.966;2022-11-20T04:43:07;-3.00;98.60
29501;DHT22;16450;50.288;10.966;2022-11-20T04:46:07;-3.00;98.60
29501;DHT22;16450;50.288;10.966;2022-11-20T04:49:08;-3.00;98.60
29501;DHT22;16450;50.288;10.966;2022-11-20T04:52:10;-2.90;98.60
29501;DHT22;16450;50.288;10.966;2022-11-20T04:55:11;-3.00;98.70
29501;DHT22;16450;50.288;10.966;2022-11-20T04:58:12;-2.90;98.70
29501;DHT22;16450;50.288;10.966;2022-11-20T05:01:15;-2.90;98.70
29501;DHT22;16450;50.288;10.966;2022-11-20T05:04:16;-2.90;98.70
29501;DHT22;16450;50.288;10.966;2022-11-20T05:07:17;-2.90;98.80
29501;DHT22;16450;50.288;10.966;2022-11-20T05:10:17;-2.90;98.70
29501;DHT22;16450;50.288;10.966;2022-11-20T05:13:18;-2.80;98.80
29501;DHT22;16450;50.288;10.966;2022-11-20T05:16:23;-2.90;99.10
29501;DHT22;16450;50.288;10.966;2022-11-20T05:19:24;-2.80;98.80
29501;DHT22;16450;50.288;10.966;2022-11-20T05:22:24;-2.80;98.80
29501;DHT22;16450;50.288;10.966;2022-11-20T05:25:25;-2.80;98.80
29501;DHT22;16450;50.288;10.966;2022-11-20T05:28:27;-2.80;98.80
29501;DHT22;16450;50.288;10.966;2022-11-20T05:31:28;-2.80;98.90
29501;DHT22;16450;50.288;10.966;2022-11-20T05:34:29;-2.80;98.90
29501;DHT22;16450;50.288;10.966;2022-11-20T05:37:29;-2.80;98.90
29501;DHT22;16450;50.288;10.966;2022-11-20T05:40:30;-2.80;98.90
29501;DHT22;16450;50.288;10.966;2022-11-20T05:43:34;-2.70;99.00
29501;DHT22;16450;50.288;10.966;2022-11-20T05:46:35;-2.70;99.00
29501;DHT22;16450;50.288;10.966;2022-11-20T05:49:35;-2.70;99.00
29501;DHT22;16450;50.288;10.966;2022-11-20T05:52:36;-2.70;98.90
29501;DHT22;16450;50.288;10.966;2022-11-20T05:55:37;-2.70;98.90
29501;DHT22;16450;50.288;10.966;2022-11-20T05:58:38;-2.70;98.90
29501;DHT22;16450;50.288;10.966;2022-11-20T06:01:38;-2.70;98.90
29501;DHT22;16450;50.288;10.966;2022-11-20T06:04:39;-2.70;99.00
29501;DHT22;16450;50.288;10.966;2022-11-20T06:07:40;-2.60;99.00
29501;DHT22;16450;50.288;10.966;2022-11-20T06:10:41;-2.60;99.00
29501;DHT22;16450;50.288;10.966;2022-11-20T06:13:42;-2.60;99.00
29501;DHT22;16450;50.288;10.966;2022-11-20T06:16:42;-2.60;99.00
29501;DHT22;16450;50.288;10.966;2022-11-20T06:19:43;-2.60;99.00
29501;DHT22;16450;50.288;10.966;2022-11-20T06:22:43;-2.60;99.00
29501;DHT22;16450;50.288;10.966;2022-11-20T06:25:44;-2.50;99.10
29501;DHT22;16450;50.288;10.966;2022-11-20T06:28:45;-2.50;99.10
29501;DHT22;16450;50.288;10.966;2022-11-20T06:31:46;-2.60;99.00
29501;DHT22;16450;50.288;10.966;2022-11-20T06:34:46;-2.60;99.10
29501;DHT22;16450;50.288;10.966;2022-11-20T06:37:47;-2.60;99.10
29501;DHT22;16450;50.288;10.966;2022-11-20T06:40:48;-2.50;99.20
29501;DHT22;16450;50.288;10.966;2022-11-20T06:43:49;-2.50;99.20
29501;DHT22;16450;50.288;10.966;2022-11-20T06:46:50;-2.50;99.20
29501;DHT22;16450;50.288;10.966;2022-11-20T06:49:51;-2.50;99.30
29501;DHT22;16450;50.288;10.966;2022-11-20T06:52:51;-2.50;99.30
29501;DHT22;16450;50.288;10.966;2022-11-20T06:55:52;-2.50;99.30
29501;DHT22;16450;50.288;10.966;2022-11-20T06:58:55;-2.50;99.30
29501;DHT22;16450;50.288;10.966;2022-11-20T07:01:56;-2.40;99.40
29501;DHT22;16450;50.288;10.966;2022-11-20T07:04:56;-2.40;99.40
29501;DHT22;16450;50.288;10.966;2022-11-20T07:07:57;-2.40;99.30
29501;DHT22;16450;50.288;10.966;2022-11-20T07:11:03;-2.40;99.60
29501;DHT22;16450;50.288;10.966;2022-11-20T07:14:04;-2.40;99.30
29501;DHT22;16450;50.288;10.966;2022-11-20T07:17:05;-2.40;99.40
29501;DHT22;16450;50.288;10.966;2022-11-20T07:20:05;-2.30;99.40
29501;DHT22;16450;50.288;10.966;2022-11-20T07:23:06;-2.30;99.40
29501;DHT22;16450;50.288;10.966;2022-11-20T07:26:09;-2.30;99.50
29501;DHT22;16450;50.288;10.966;2022-11-20T07:29:10;-2.30;99.50
29501;DHT22;16450;50.288;10.966;2022-11-20T07:32:11;-2.30;99.50
29501;DHT22;16450;50.288;10.966;2022-11-20T07:35:11;-2.20;99.60
29501;DHT22;16450;50.288;10.966;2022-11-20T07:38:12;-2.20;99.60
29501;DHT22;16450;50.288;10.966;2022-11-20T07:41:14;-2.20;99.60
29501;DHT22;16450;50.288;10.966;2022-11-20T07:44:15;-2.10;99.70
29501;DHT22;16450;50.288;10.966;2022-11-20T07:47:16;-2.10;99.80
29501;DHT22;16450;50.288;10.966;2022-11-20T07:50:17;-2.10;99.80
29501;DHT22;16450;50.288;10.966;2022-11-20T07:53:18;-2.00;99.80
29501;DHT22;16450;50.288;10.966;2022-11-20T07:56:21;-2.00;99.80
29501;DHT22;16450;50.288;10.966;2022-11-20T07:59:21;-1.90;99.90
29501;DHT22;16450;50.288;10.966;2022-11-20T08:02:22;-1.90;99.90
29501;DHT22;16450;50.288;10.966;2022-11-20T08:05:23;-1.90;99.90
29501;DHT22;16450;50.288;10.966;2022-11-20T08:08:24;-1.90;99.90
29501;DHT22;16450;50.288;10.966;2022-11-20T08:11:24;-1.80;99.90
29501;DHT22;16450;50.288;10.966;2022-11-20T08:14:43;-1.80;99.80
29501;DHT22;16450;50.288;10.966;2022-11-20T08:17:44;-1.80;99.90
29501;DHT22;16450;50.288;10.966;2022-11-20T08:20:45;-1.80;99.90
29501;DHT22;16450;50.288;10.966;2022-11-20T08:23:46;-1.70;99.90
29501;DHT22;16450;50.288;10.966;2022-11-20T08:26:46;-1.70;99.90
29501;DHT22;16450;50.288;10.966;2022-11-20T08:29:47;-1.60;99.90
29501;DHT22;16450;50.288;10.966;2022-11-20T08:32:48;-1.60;99.90
29501;DHT22;16450;50.288;10.966;2022-11-20T08:35:48;-1.60;99.90
29501;DHT22;16450;50.288;10.966;2022-11-20T08:38:50;-1.50;99.90
29501;DHT22;16450;50.288;10.966;2022-11-20T08:41:51;-1.50;99.90
29501;DHT22;16450;50.288;10.966;2022-11-20T08:44:52;-1.50;99.90
29501;DHT22;16450;50.288;10.966;2022-11-20T08:47:53;-1.40;99.90
29501;DHT22;16450;50.288;10.966;2022-11-20T08:50:58;-1.40;99.90
29501;DHT22;16450;50.288;10.966;2022-11-20T08:53:59;-1.30;99.90
29501;DHT22;16450;50.288;10.966;2022-11-20T08:57:00;-1.40;99.90
29501;DHT22;16450;50.288;10.966;2022-11-20T09:00:02;-1.30;99.90
29501;DHT22;16450;50.288;10.966;2022-11-20T09:03:03;-1.30;99.90
29501;DHT22;16450;50.288;10.966;2022-11-20T09:06:06;-1.30;99.90
29501;DHT22;16450;50.288;10.966;2022-11-20T09:09:07;-1.30;99.90
29501;DHT22;16450;50.288;10.966;2022-11-20T09:12:07;-1.20;99.90
29501;DHT22;16450;50.288;10.966;2022-11-20T09:15:08;-1.20;99.90
29501;DHT22;16450;50.288;10.966;2022-11-20T09:18:09;-1.20;99.90
29501;DHT22;16450;50.288;10.966;2022-11-20T09:21:11;-1.20;99.90
29501;DHT22;16450;50.288;10.966;2022-11-20T09:24:12;-1.20;99.90
29501;DHT22;16450;50.288;10.966;2022-11-20T09:27:13;-1.10;99.90
29501;DHT22;16450;50.288;10.966;2022-11-20T09:30:15;-1.10;99.90
29501;DHT22;16450;50.288;10.966;2022-11-20T09:33:15;-1.10;99.90
29501;DHT22;16450;50.288;10.966;2022-11-20T09:36:16;-1.00;99.90
29501;DHT22;16450;50.288;10.966;2022-11-20T09:39:18;-1.00;99.90
29501;DHT22;16450;50.288;10.966;2022-11-20T09:42:39;-1.00;99.90
29501;DHT22;16450;50.288;10.966;2022-11-20T09:46:15;-1.00;99.90
29501;DHT22;16450;50.288;10.966;2022-11-20T09:49:34;-1.00;99.90
29501;DHT22;16450;50.288;10.966;2022-11-20T09:53:14;-0.90;99.90
29501;DHT22;16450;50.288;10.966;2022-11-20T09:56:17;-0.90;99.90
29501;DHT22;16450;50.288;10.966;2022-11-20T10:02:37;-0.90;99.90
29501;DHT22;16450;50.288;10.966;2022-11-20T10:05:46;-0.90;99.90
29501;DHT22;16450;50.288;10.966;2022-11-20T10:08:56;-0.90;99.90
29501;DHT22;16450;50.288;10.966;2022-11-20T10:15:41;-0.90;99.90
29501;DHT22;16450;50.288;10.966;2022-11-20T10:25:23;-0.80;99.90
29501;DHT22;16450;50.288;10.966;2022-11-20T10:28:27;-0.80;99.90
29501;DHT22;16450;50.288;10.966;2022-11-20T10:31:41;-0.80;99.90
29501;DHT22;16450;50.288;10.966;2022-11-20T10:34:59;-0.80;99.90
29501;DHT22;16450;50.288;10.966;2022-11-20T10:38:05;-0.80;99.90
29501;DHT22;16450;50.288;10.966;2022-11-20T10:41:17;-0.80;99.90
29501;DHT22;16450;50.288;10.966;2022-11-20T10:44:28;-0.70;99.90
29501;DHT22;16450;50.288;10.966;2022-11-20T10:47:47;-0.70;99.90
29501;DHT22;16450;50.288;10.966;2022-11-20T10:51:03;-0.70;99.90
29501;DHT22;16450;50.288;10.966;2022-11-20T11:00:26;-0.60;99.90
29501;DHT22;16450;50.288;10.966;2022-11-20T11:03:29;-0.60;99.90
29501;DHT22;16450;50.288;10.966;2022-11-20T11:06:40;-0.60;99.90
29501;DHT22;16450;50.288;10.966;2022-11-20T11:09:46;-0.60;99.90
29501;DHT22;16450;50.288;10.966;2022-11-20T11:12:48;-0.50;99.90
29501;DHT22;16450;50.288;10.966;2022-11-20T11:15:49;-0.50;99.90
29501;DHT22;16450;50.288;10.966;2022-11-20T11:18:50;-0.50;99.90
29501;DHT22;16450;50.288;10.966;2022-11-20T11:21:55;-0.50;99.90
29501;DHT22;16450;50.288;10.966;2022-11-20T11:24:57;-0.40;99.90
29501;DHT22;16450;50.288;10.966;2022-11-20T11:28:19;-0.40;99.90
29501;DHT22;16450;50.288;10.966;2022-11-20T11:31:30;-0.40;99.90
29501;DHT22;16450;50.288;10.966;2022-11-20T11:34:31;-0.40;99.90
29501;DHT22;16450;50.288;10.966;2022-11-20T11:37:34;-0.30;99.90
29501;DHT22;16450;50.288;10.966;2022-11-20T11:40:37;-0.30;99.90
29501;DHT22;16450;50.288;10.966;2022-11-20T11:43:38;-0.30;99.90
29501;DHT22;16450;50.288;10.966;2022-11-20T11:46:58;-0.30;99.90
29501;DHT22;16450;50.288;10.966;2022-11-20T11:53:22;-0.20;99.90
29501;DHT22;16450;50.288;10.966;2022-11-20T11:56:24;-0.10;99.90
29501;DHT22;16450;50.288;10.966;2022-11-20T12:06:19;0.00;99.90
29501;DHT22;16450;50.288;10.966;2022-11-20T12:09:24;0.00;99.90
29501;DHT22;16450;50.288;10.966;2022-11-20T12:12:36;0.10;99.90
29501;DHT22;16450;50.288;10.966;2022-11-20T12:15:44;0.10;99.90
29501;DHT22;16450;50.288;10.966;2022-11-20T12:18:49;0.10;99.90
29501;DHT22;16450;50.288;10.966;2022-11-20T12:22:04;0.10;99.90
29501;DHT22;16450;50.288;10.966;2022-11-20T12:25:18;0.10;99.90
29501;DHT22;16450;50.288;10.966;2022-11-20T12:55:28;0.30;99.90
29501;DHT22;16450;50.288;10.966;2022-11-20T13:02:25;0.30;99.90
29501;DHT22;16450;50.288;10.966;2022-11-20T13:05:37;0.30;99.90
29501;DHT22;16450;50.288;10.966;2022-11-20T13:08:56;0.30;99.90
29501;DHT22;16450;50.288;10.966;2022-11-20T13:12:16;0.40;99.90
29501;DHT22;16450;50.288;10.966;2022-11-20T13:15:34;0.40;99.90
29501;DHT22;16450;50.288;10.966;2022-11-20T13:18:40;0.40;99.90
29501;DHT22;16450;50.288;10.966;2022-11-20T13:21:45;0.40;99.90
29501;DHT22;16450;50.288;10.966;2022-11-20T13:24:51;0.40;99.90
29501;DHT22;16450;50.288;10.966;2022-11-20T13:27:53;0.50;99.90
29501;DHT22;16450;50.288;10.966;2022-11-20T13:30:55;0.40;99.90
29501;DHT22;16450;50.288;10.966;2022-11-20T13:33:57;0.40;99.90
29501;DHT22;16450;50.288;10.966;2022-11-20T13:36:59;0.40;99.90
29501;DHT22;16450;50.288;10.966;2022-11-20T13:43:49;0.40;99.90
29501;DHT22;16450;50.288;10.966;2022-11-20T13:46:45;0.40;99.90
29501;DHT22;16450;50.288;10.966;2022-11-20T13:49:46;0.40;99.90
29501;DHT22;16450;50.288;10.966;2022-11-20T13:56:11;0.40;99.90
29501;DHT22;16450;50.288;10.966;2022-11-20T13:59:40;0.40;99.90
29501;DHT22;16450;50.288;10.966;2022-11-20T14:06:05;0.40;99.90
29501;DHT22;16450;50.288;10.966;2022-11-20T14:09:29;0.40;99.90
29501;DHT22;16450;50.288;10.966;2022-11-20T14:12:32;0.40;99.90
29501;DHT22;16450;50.288;10.966;2022-11-20T14:15:34;0.40;99.90
29501;DHT22;16450;50.288;10.966;2022-11-20T14:18:35;0.40;99.90
29501;DHT22;16450;50.288;10.966;2022-11-20T14:21:35;0.30;99.90
29501;DHT22;16450;50.288;10.966;2022-11-20T14:24:36;0.30;99.90
29501;DHT22;16450;50.288;10.966;2022-11-20T14:27:39;0.30;99.90
29501;DHT22;16450;50.288;10.966;2022-11-20T14:30:46;0.30;99.90
29501;DHT22;16450;50.288;10.966;2022-11-20T14:33:47;0.30;99.90
29501;DHT22;16450;50.288;10.966;2022-11-20T14:36:52;0.30;99.90
29501;DHT22;16450;50.288;10.966;2022-11-20T14:39:55;0.30;99.90
29501;DHT22;16450;50.288;10.966;2022-11-20T14:42:57;0.30;99.90
29501;DHT22;16450;50.288;10.966;2022-11-20T14:46:03;0.30;99.90
29501;DHT22;16450;50.288;10.966;2022-11-20T14:49:05;0.30;99.90
29501;DHT22;16450;50.288;10.966;2022-11-20T14:52:17;0.30;99.90
29501;DHT22;16450;50.288;10.966;2022-11-20T14:55:35;0.30;99.90
29501;DHT22;16450;50.288;10.966;2022-11-20T14:58:36;0.30;99.90
29501;DHT22;16450;50.288;10.966;2022-11-20T15:01:37;0.30;99.90
29501;DHT22;16450;50.288;10.966;2022-11-20T15:04:49;0.30;99.90
29501;DHT22;16450;50.288;10.966;2022-11-20T15:08:04;0.30;99.90
29501;DHT22;16450;50.288;10.966;2022-11-20T15:11:17;0.30;99.90
29501;DHT22;16450;50.288;10.966;2022-11-20T15:14:18;0.30;99.90
29501;DHT22;16450;50.288;10.966;2022-11-20T15:17:19;0.30;99.90
29501;DHT22;16450;50.288;10.966;2022-11-20T15:20:22;0.30;99.90
29501;DHT22;16450;50.288;10.966;2022-11-20T15:23:25;0.30;99.90
29501;DHT22;16450;50.288;10.966;2022-11-20T15:26:27;0.30;99.90
29501;DHT22;16450;50.288;10.966;2022-11-20T15:29:28;0.30;99.90
29501;DHT22;16450;50.288;10.966;2022-11-20T15:32:28;0.20;99.90
29501;DHT22;16450;50.288;10.966;2022-11-20T15:35:29;0.30;99.90
29501;DHT22;16450;50.288;10.966;2022-11-20T15:38:30;0.30;99.90
29501;DHT22;16450;50.288;10.966;2022-11-20T15:41:30;0.20;99.90
29501;DHT22;16450;50.288;10.966;2022-11-20T15:44:31;0.30;99.90
29501;DHT22;16450;50.288;10.966;2022-11-20T15:47:33;0.30;99.90
29501;DHT22;16450;50.288;10.966;2022-11-20T15:50:38;0.30;99.90
29501;DHT22;16450;50.288;10.966;2022-11-20T15:53:40;0.30;99.90
29501;DHT22;16450;50.288;10.966;2022-11-20T15:56:41;0.30;99.90
29501;DHT22;16450;50.288;10.966;2022-11-20T15:59:42;0.30;99.90
29501;DHT22;16450;50.288;10.966;2022-11-20T16:02:42;0.30;99.90
29501;DHT22;16450;50.288;10.966;2022-11-20T16:05:44;0.30;99.90
29501;DHT22;16450;50.288;10.966;2022-11-20T16:08:44;0.30;99.90
29501;DHT22;16450;50.288;10.966;2022-11-20T16:11:46;0.30;99.90
29501;DHT22;16450;50.288;10.966;2022-11-20T16:14:46;0.30;99.90
29501;DHT22;16450;50.288;10.966;2022-11-20T16:18:08;0.30;99.90
29501;DHT22;16450;50.288;10.966;2022-11-20T16:21:11;0.30;99.90
29501;DHT22;16450;50.288;10.966;2022-11-20T16:24:14;0.30;99.90
29501;DHT22;16450;50.288;10.966;2022-11-20T16:27:14;0.30;99.90
29501;DHT22;16450;50.288;10.966;2022-11-20T16:30:15;0.30;99.90
29501;DHT22;16450;50.288;10.966;2022-11-20T16:33:17;0.30;99.90
29501;DHT22;16450;50.288;10.966;2022-11-20T16:36:18;0.30;99.90
29501;DHT22;16450;50.288;10.966;2022-11-20T16:39:19;0.30;99.90
29501;DHT22;16450;50.288;10.966;2022-11-20T16:42:19;0.30;99.90
29501;DHT22;16450;50.288;10.966;2022-11-20T16:45:20;0.30;99.90
29501;DHT22;16450;50.288;10.966;2022-11-20T16:48:21;0.30;99.90
29501;DHT22;16450;50.288;10.966;2022-11-20T16:51:23;0.30;99.90
29501;DHT22;16450;50.288;10.966;2022-11-20T16:54:24;0.30;99.90
29501;DHT22;16450;50.288;10.966;2022-11-20T16:57:27;0.40;99.90
29501;DHT22;16450;50.288;10.966;2022-11-20T17:00:29;0.40;99.90
29501;DHT22;16450;50.288;10.966;2022-11-20T17:03:29;0.40;99.90
29501;DHT22;16450;50.288;10.966;2022-11-20T17:06:34;0.40;99.90
29501;DHT22;16450;50.288;10.966;2022-11-20T17:09:35;0.40;99.90
29501;DHT22;16450;50.288;10.966;2022-11-20T17:12:36;0.40;99.90
29501;DHT22;16450;50.288;10.966;2022-11-20T17:15:37;0.40;99.90
29501;DHT22;16450;50.288;10.966;2022-11-20T17:18:37;0.40;99.90
29501;DHT22;16450;50.288;10.966;2022-11-20T17:21:38;0.40;99.90
29501;DHT22;16450;50.288;10.966;2022-11-20T17:24:39;0.40;99.90
29501;DHT22;16450;50.288;10.966;2022-11-20T17:27:40;0.30;99.90
29501;DHT22;16450;50.288;10.966;2022-11-20T17:30:40;0.30;99.90
29501;DHT22;16450;50.288;10.966;2022-11-20T17:33:42;0.30;99.90
29501;DHT22;16450;50.288;10.966;2022-11-20T17:36:44;0.40;99.90
29501;DHT22;16450;50.288;10.966;2022-11-20T17:39:44;0.40;99.90
29501;DHT22;16450;50.288;10.966;2022-11-20T17:42:46;0.40;99.90
29501;DHT22;16450;50.288;10.966;2022-11-20T17:45:46;0.40;99.90
29501;DHT22;16450;50.288;10.966;2022-11-20T17:48:48;0.40;99.90
29501;DHT22;16450;50.288;10.966;2022-11-20T17:51:49;0.40;99.90
29501;DHT22;16450;50.288;10.966;2022-11-20T17:54:50;0.40;99.90
29501;DHT22;16450;50.288;10.966;2022-11-20T17:57:55;0.40;99.90
29501;DHT22;16450;50.288;10.966;2022-11-20T18:01:04;0.40;99.90
29501;DHT22;16450;50.288;10.966;2022-11-20T18:04:05;0.40;99.90
29501;DHT22;16450;50.288;10.966;2022-11-20T18:07:06;0.40;99.90
29501;DHT22;16450;50.288;10.966;2022-11-20T18:10:07;0.40;99.90
29501;DHT22;16450;50.288;10.966;2022-11-20T18:13:08;0.40;99.90
29501;DHT22;16450;50.288;10.966;2022-11-20T18:16:09;0.40;99.90
29501;DHT22;16450;50.288;10.966;2022-11-20T18:19:12;0.40;99.90
29501;DHT22;16450;50.288;10.966;2022-11-20T18:22:14;0.50;99.90
29501;DHT22;16450;50.288;10.966;2022-11-20T18:25:16;0.50;99.90
29501;DHT22;16450;50.288;10.966;2022-11-20T18:28:16;0.50;99.90
29501;DHT22;16450;50.288;10.966;2022-11-20T18:31:19;0.50;99.90
29501;DHT22;16450;50.288;10.966;2022-11-20T18:34:19;0.50;99.90
29501;DHT22;16450;50.288;10.966;2022-11-20T18:37:20;0.50;99.90
29501;DHT22;16450;50.288;10.966;2022-11-20T18:40:21;0.50;99.90
29501;DHT22;16450;50.288;10.966;2022-11-20T18:43:22;0.50;99.90
29501;DHT22;16450;50.288;10.966;2022-11-20T18:46:42;0.50;99.90
29501;DHT22;16450;50.288;10.966;2022-11-20T18:49:44;0.50;99.90
29501;DHT22;16450;50.288;10.966;2022-11-20T18:52:51;0.50;99.90
29501;DHT22;16450;50.288;10.966;2022-11-20T18:55:52;0.60;99.90
29501;DHT22;16450;50.288;10.966;2022-11-20T18:58:53;0.60;99.90
29501;DHT22;16450;50.288;10.966;2022-11-20T19:01:53;0.60;99.90
29501;DHT22;16450;50.288;10.966;2022-11-20T19:04:54;0.60;99.90
29501;DHT22;16450;50.288;10.966;2022-11-20T19:07:55;0.60;99.90
29501;DHT22;16450;50.288;10.966;2022-11-20T19:11:08;0.60;99.90
29501;DHT22;16450;50.288;10.966;2022-11-20T19:14:09;0.60;99.90
29501;DHT22;16450;50.288;10.966;2022-11-20T19:17:09;0.70;99.90
29501;DHT22;16450;50.288;10.966;2022-11-20T19:20:12;0.60;99.90
29501;DHT22;16450;50.288;10.966;2022-11-20T19:23:12;0.60;99.90
29501;DHT22;16450;50.288;10.966;2022-11-20T19:26:13;0.60;99.90
29501;DHT22;16450;50.288;10.966;2022-11-20T19:29:15;0.70;99.90
29501;DHT22;16450;50.288;10.966;2022-11-20T19:32:16;0.60;99.90
29501;DHT22;16450;50.288;10.966;2022-11-20T19:35:16;0.70;99.90
29501;DHT22;16450;50.288;10.966;2022-11-20T19:38:17;0.70;99.90
29501;DHT22;16450;50.288;10.966;2022-11-20T19:41:20;0.70;99.90
29501;DHT22;16450;50.288;10.966;2022-11-20T19:44:21;0.70;99.90
29501;DHT22;16450;50.288;10.966;2022-11-20T19:47:21;0.70;99.90
29501;DHT22;16450;50.288;10.966;2022-11-20T19:50:22;0.70;99.90
29501;DHT22;16450;50.288;10.966;2022-11-20T19:53:23;0.70;99.90
29501;DHT22;16450;50.288;10.966;2022-11-20T19:56:25;0.70;99.90
29501;DHT22;16450;50.288;10.966;2022-11-20T19:59:26;0.60;99.90
29501;DHT22;16450;50.288;10.966;2022-11-20T20:02:27;0.60;99.90
29501;DHT22;16450;50.288;10.966;2022-11-20T20:05:28;0.70;99.90
29501;DHT22;16450;50.288;10.966;2022-11-20T20:08:29;0.60;99.90
29501;DHT22;16450;50.288;10.966;2022-11-20T20:11:31;0.60;99.90
29501;DHT22;16450;50.288;10.966;2022-11-20T20:14:32;0.60;99.90
29501;DHT22;16450;50.288;10.966;2022-11-20T20:17:34;0.60;99.90